Seabulk Trader — KNJK — position and weather

sailwx.info

Track history (hours):
 
Tides and Currents Weather Stations Pressure Air Temp Water Temp Dewpoint Dewpoint Depression Visibility Wind Speed Wind Dir Waves Ship Positions

Seabulk Trader

Owner: Seabulk Tankers Inc, Fort Lauderdale, FL. More information available from US FCC via Universal Licensing System and Coast Guard Vessel Documentation Center.

Last reported at 2017-Nov-20 00:29 UTC. Time now 2017-Nov-22 01:38 UTC.
Position N 30°11' W 093°19'.

Type: Tanker. MMSI: 303105000.

Date/timePositionNaut miles runAvg speedWind from/ knotsBaromVisibWave heightAir tempDewpointWater temp
2017-Nov-20 00:29N 30°11' W 093°19'0 0.0
2017-Nov-19 23:59N 30°11' W 093°19'0 0.0
2017-Nov-19 23:29N 30°11' W 093°19'0 0.0
2017-Nov-19 22:59N 30°11' W 093°19'0 0.0
2017-Nov-19 22:29N 30°11' W 093°19'0 0.0
2017-Nov-19 21:56N 30°11' W 093°19'0 0.0
2017-Nov-19 21:29N 30°11' W 093°19'0 0.0
2017-Nov-19 20:59N 30°11' W 093°19'0 0.0
2017-Nov-19 20:29N 30°11' W 093°19'0 0.0
2017-Nov-19 19:59N 30°11' W 093°19'0 0.0
2017-Nov-19 19:29N 30°11' W 093°19'0 0.0
2017-Nov-19 18:59N 30°11' W 093°19'0 0.0
2017-Nov-19 18:29N 30°11' W 093°19'0 0.0
2017-Nov-19 17:56N 30°11' W 093°19'0 0.0
2017-Nov-19 17:29N 30°11' W 093°19'0 0.0
2017-Nov-19 16:59N 30°11' W 093°19'0 0.0
2017-Nov-19 16:29N 30°11' W 093°19'0 0.0
2017-Nov-19 15:59N 30°11' W 093°19'0 0.0
2017-Nov-19 15:29N 30°11' W 093°19'0 0.0
2017-Nov-19 14:56N 30°11' W 093°19'0 0.0
2017-Nov-19 14:29N 30°11' W 093°19'0 0.0
2017-Nov-19 13:59N 30°11' W 093°19'0 0.0
2017-Nov-19 13:29N 30°11' W 093°19'0 0.0
2017-Nov-19 12:59N 30°11' W 093°19'0 0.0
2017-Nov-19 12:29N 30°11' W 093°19'0 0.0
2017-Nov-19 11:59N 30°11' W 093°19'0 0.0
2017-Nov-19 11:29N 30°11' W 093°19'0 0.0
2017-Nov-19 10:59N 30°11' W 093°19'0 0.0
2017-Nov-19 10:29N 30°11' W 093°19'0 0.0
2017-Nov-19 09:59N 30°11' W 093°19'0 0.0
2017-Nov-19 09:29N 30°11' W 093°19'0 0.0
2017-Nov-19 08:59N 30°11' W 093°19'0 0.0
2017-Nov-19 08:29N 30°11' W 093°19'0 0.0
2017-Nov-19 07:59N 30°11' W 093°19'0 0.0
2017-Nov-19 07:29N 30°11' W 093°19'0 0.0
2017-Nov-19 06:59N 30°11' W 093°19'0 0.0
2017-Nov-19 06:28N 30°11' W 093°19'0 0.0
2017-Nov-19 05:58N 30°11' W 093°19'0 0.0
2017-Nov-19 05:28N 30°11' W 093°19'0 0.0
2017-Nov-19 04:58N 30°11' W 093°19'0 0.0
2017-Nov-19 04:28N 30°11' W 093°19'0 0.2
2017-Nov-19 04:00N 30°11' W 093°19'0 0.5
2017-Nov-19 03:30N 30°11' W 093°19'2 4.6
2017-Nov-19 03:00N 30°08' W 093°20'4 7.3
2017-Nov-19 02:30N 30°05' W 093°20'4 8.2
2017-Nov-19 02:00N 30°01' W 093°20'4 8.9
2017-Nov-19 01:30N 29°56' W 093°20'510.7
2017-Nov-19 01:00N 29°51' W 093°21'4 8.8
2017-Nov-19 00:30N 29°46' W 093°21'611.6
2017-Nov-19 00:00N 29°41' W 093°20'5 9.7
2017-Nov-18 23:30N 29°36' W 093°17'  
2017-Nov-15 18:33N 27°36' W 082°44'114.2
2017-Nov-15 18:30N 27°36' W 082°43'713.2
2017-Nov-15 17:58N 27°40' W 082°36'612.9
2017-Nov-15 17:30N 27°45' W 082°32'611.7
2017-Nov-15 17:01N 27°49' W 082°27'611.8
2017-Nov-15 16:31N 27°55' W 082°26'2 3.6
2017-Nov-15 16:00N 27°56' W 082°27'0 0.9
2017-Nov-15 15:28N 27°56' W 082°27'0 0.0
2017-Nov-15 14:58N 27°56' W 082°27'0 0.0
2017-Nov-15 14:28N 27°56' W 082°27'0 0.0
2017-Nov-15 13:58N 27°56' W 082°27'0 0.0
2017-Nov-15 13:25N 27°56' W 082°27'0 0.0
2017-Nov-15 12:58N 27°56' W 082°27'0 0.0
2017-Nov-15 12:28N 27°56' W 082°27'0 0.0
2017-Nov-15 11:58N 27°56' W 082°27'0 0.0
2017-Nov-15 11:28N 27°56' W 082°27'0 0.0
2017-Nov-15 10:58N 27°56' W 082°27'0 0.0
2017-Nov-15 10:28N 27°56' W 082°27'0 0.0
2017-Nov-15 09:58N 27°56' W 082°27'0 0.0
2017-Nov-15 09:28N 27°56' W 082°27'0 0.0
2017-Nov-15 08:58N 27°56' W 082°27'0 0.0
2017-Nov-15 08:22N 27°56' W 082°27'0 0.0
2017-Nov-15 07:58N 27°56' W 082°27'0 0.0
2017-Nov-15 07:28N 27°56' W 082°27'0 0.0
2017-Nov-15 06:58N 27°56' W 082°27'0 0.0
2017-Nov-15 06:28N 27°56' W 082°27'0 0.0
2017-Nov-15 05:58N 27°56' W 082°27'0 0.0
2017-Nov-15 05:25N 27°56' W 082°27'0 0.0
2017-Nov-15 04:58N 27°56' W 082°27'0 0.0
2017-Nov-15 04:28N 27°56' W 082°27'0 0.0
2017-Nov-15 04:01N 27°56' W 082°27'0 0.0
2017-Nov-15 03:31N 27°56' W 082°27'0 0.0
2017-Nov-15 03:01N 27°56' W 082°27'0 0.0
2017-Nov-15 02:30N 27°56' W 082°27'0 0.0
2017-Nov-15 02:00N 27°56' W 082°27'0 0.0
2017-Nov-15 01:30N 27°56' W 082°27'0 0.0
2017-Nov-15 01:00N 27°56' W 082°27'0 0.0
2017-Nov-15 00:30N 27°56' W 082°27'0 0.0
2017-Nov-14 23:57N 27°56' W 082°27'0 0.0
2017-Nov-14 23:27N 27°56' W 082°27'0 0.0
2017-Nov-14 23:00N 27°56' W 082°27'0 0.0
2017-Nov-14 22:30N 27°56' W 082°27'0 0.0
2017-Nov-14 22:00N 27°56' W 082°27'0 0.0
2017-Nov-14 21:30N 27°56' W 082°27'0 0.0
2017-Nov-14 21:00N 27°56' W 082°27'0 0.0
2017-Nov-14 20:30N 27°56' W 082°27'0 0.0
2017-Nov-14 20:00N 27°56' W 082°27'0 0.0
2017-Nov-14 19:30N 27°56' W 082°27'0 0.0
2017-Nov-14 19:00N 27°56' W 082°27'0 0.0
2017-Nov-14 18:30N 27°56' W 082°27'0 0.0
2017-Nov-14 18:00N 27°56' W 082°27'0 0.0
2017-Nov-14 17:30N 27°56' W 082°27'0 0.0
2017-Nov-14 17:00N 27°56' W 082°27'0 0.0
2017-Nov-14 16:30N 27°56' W 082°27'0 0.0
2017-Nov-14 16:00N 27°56' W 082°27'0 0.0
2017-Nov-14 15:24N 27°56' W 082°27'0 0.0
2017-Nov-14 15:00N 27°56' W 082°27'0 0.0
2017-Nov-14 14:30N 27°56' W 082°27'0 0.0
2017-Nov-14 14:00N 27°56' W 082°27'0 0.0
2017-Nov-14 13:30N 27°56' W 082°27'0 0.0
2017-Nov-14 13:00N 27°56' W 082°27'0 0.0
2017-Nov-14 12:30N 27°56' W 082°27'0 0.0
2017-Nov-14 12:00N 27°56' W 082°27'0 0.0
2017-Nov-14 11:30N 27°56' W 082°27'0 0.0
2017-Nov-14 11:00N 27°56' W 082°27'0 0.0
2017-Nov-14 10:30N 27°56' W 082°27'0 0.0
2017-Nov-14 10:00N 27°56' W 082°27'0 0.0
2017-Nov-14 09:30N 27°56' W 082°27'0 0.0
2017-Nov-14 09:00N 27°56' W 082°27'0 0.0
2017-Nov-14 08:30N 27°56' W 082°27'0 0.0
2017-Nov-14 07:54N 27°56' W 082°27'0 0.0
2017-Nov-14 07:30N 27°56' W 082°27'0 0.0
2017-Nov-14 07:00N 27°56' W 082°27'0 0.0
2017-Nov-14 06:30N 27°56' W 082°27'0 0.0
2017-Nov-14 05:57N 27°56' W 082°27'0 0.0
2017-Nov-14 05:30N 27°56' W 082°27'0 0.2
2017-Nov-14 05:00N 27°56' W 082°27'2 4.2
2017-Nov-14 04:30N 27°54' W 082°26'510.7
2017-Nov-14 04:00N 27°48' W 082°27'611.2
2017-Nov-14 03:30N 27°44' W 082°32'  
2017-Nov-10 16:20N 30°11' W 093°19'0 0.0
2017-Nov-10 15:56N 30°11' W 093°19'0 0.0
2017-Nov-10 15:29N 30°11' W 093°19'0 0.0
2017-Nov-10 14:59N 30°11' W 093°19'0 0.0
2017-Nov-10 14:29N 30°11' W 093°19'0 0.0
2017-Nov-10 13:59N 30°11' W 093°19'0 0.0
2017-Nov-10 13:29N 30°11' W 093°19'0 0.0
2017-Nov-10 12:59N 30°11' W 093°19'0 0.0
2017-Nov-10 12:29N 30°11' W 093°19'0 0.0
2017-Nov-10 11:59N 30°11' W 093°19'0 0.0
2017-Nov-10 11:29N 30°11' W 093°19'0 0.0
2017-Nov-10 10:59N 30°11' W 093°19'0 0.0
2017-Nov-10 10:23N 30°11' W 093°19'0 0.0
2017-Nov-10 09:59N 30°11' W 093°19'0 0.0
2017-Nov-10 09:29N 30°11' W 093°19'0 0.0
2017-Nov-10 08:59N 30°11' W 093°19'0 0.0
2017-Nov-10 08:29N 30°11' W 093°19'0 0.0
2017-Nov-10 07:59N 30°11' W 093°19'0 0.0
2017-Nov-10 07:29N 30°11' W 093°19'0 0.0
2017-Nov-10 06:59N 30°11' W 093°19'0 0.0
2017-Nov-10 06:29N 30°11' W 093°19'0 0.0
2017-Nov-10 05:59N 30°11' W 093°19'0 0.0
2017-Nov-10 05:29N 30°11' W 093°19'0 0.0
2017-Nov-10 04:59N 30°11' W 093°19'0 0.0
2017-Nov-10 04:29N 30°11' W 093°19'0 0.0
2017-Nov-10 03:59N 30°11' W 093°19'0 0.0
2017-Nov-10 03:29N 30°11' W 093°19'0 0.0
2017-Nov-10 02:59N 30°11' W 093°19'0 0.1
2017-Nov-10 02:30N 30°11' W 093°19'1 1.1
2017-Nov-10 02:00N 30°10' W 093°19'3 6.2
2017-Nov-10 01:30N 30°07' W 093°20'4 8.1
2017-Nov-10 01:00N 30°03' W 093°20'4 8.1
2017-Nov-10 00:30N 29°59' W 093°20'  
Track history (hours):
 
Tides and Currents Weather Stations Pressure Air Temp Water Temp Dewpoint Dewpoint Depression Visibility Wind Speed Wind Dir Waves Ship Positions

Seabulk Trader

Owner: Seabulk Tankers Inc, Fort Lauderdale, FL. More information available from US FCC via Universal Licensing System and Coast Guard Vessel Documentation Center.

Last reported at 2017-Nov-20 00:29 UTC. Time now 2017-Nov-22 01:38 UTC.
Position N 30°11' W 093°19'.

Type: Tanker. MMSI: 303105000.

Date/timePositionNaut miles runAvg speedWind from/ knotsBaromVisibWave heightAir tempDewpointWater temp
2017-Nov-20 00:29N 30°11' W 093°19'0 0.0
2017-Nov-19 23:59N 30°11' W 093°19'0 0.0
2017-Nov-19 23:29N 30°11' W 093°19'0 0.0
2017-Nov-19 22:59N 30°11' W 093°19'0 0.0
2017-Nov-19 22:29N 30°11' W 093°19'0 0.0
2017-Nov-19 21:56N 30°11' W 093°19'0 0.0
2017-Nov-19 21:29N 30°11' W 093°19'0 0.0
2017-Nov-19 20:59N 30°11' W 093°19'0 0.0
2017-Nov-19 20:29N 30°11' W 093°19'0 0.0
2017-Nov-19 19:59N 30°11' W 093°19'0 0.0
2017-Nov-19 19:29N 30°11' W 093°19'0 0.0
2017-Nov-19 18:59N 30°11' W 093°19'0 0.0
2017-Nov-19 18:29N 30°11' W 093°19'0 0.0
2017-Nov-19 17:56N 30°11' W 093°19'0 0.0
2017-Nov-19 17:29N 30°11' W 093°19'0 0.0
2017-Nov-19 16:59N 30°11' W 093°19'0 0.0
2017-Nov-19 16:29N 30°11' W 093°19'0 0.0
2017-Nov-19 15:59N 30°11' W 093°19'0 0.0
2017-Nov-19 15:29N 30°11' W 093°19'0 0.0
2017-Nov-19 14:56N 30°11' W 093°19'0 0.0
2017-Nov-19 14:29N 30°11' W 093°19'0 0.0
2017-Nov-19 13:59N 30°11' W 093°19'0 0.0
2017-Nov-19 13:29N 30°11' W 093°19'0 0.0
2017-Nov-19 12:59N 30°11' W 093°19'0 0.0
2017-Nov-19 12:29N 30°11' W 093°19'0 0.0
2017-Nov-19 11:59N 30°11' W 093°19'0 0.0
2017-Nov-19 11:29N 30°11' W 093°19'0 0.0
2017-Nov-19 10:59N 30°11' W 093°19'0 0.0
2017-Nov-19 10:29N 30°11' W 093°19'0 0.0
2017-Nov-19 09:59N 30°11' W 093°19'0 0.0
2017-Nov-19 09:29N 30°11' W 093°19'0 0.0
2017-Nov-19 08:59N 30°11' W 093°19'0 0.0
2017-Nov-19 08:29N 30°11' W 093°19'0 0.0
2017-Nov-19 07:59N 30°11' W 093°19'0 0.0
2017-Nov-19 07:29N 30°11' W 093°19'0 0.0
2017-Nov-19 06:59N 30°11' W 093°19'0 0.0
2017-Nov-19 06:28N 30°11' W 093°19'0 0.0
2017-Nov-19 05:58N 30°11' W 093°19'0 0.0
2017-Nov-19 05:28N 30°11' W 093°19'0 0.0
2017-Nov-19 04:58N 30°11' W 093°19'0 0.0
2017-Nov-19 04:28N 30°11' W 093°19'0 0.2
2017-Nov-19 04:00N 30°11' W 093°19'0 0.5
2017-Nov-19 03:30N 30°11' W 093°19'2 4.6
2017-Nov-19 03:00N 30°08' W 093°20'4 7.3
2017-Nov-19 02:30N 30°05' W 093°20'4 8.2
2017-Nov-19 02:00N 30°01' W 093°20'4 8.9
2017-Nov-19 01:30N 29°56' W 093°20'510.7
2017-Nov-19 01:00N 29°51' W 093°21'4 8.8
2017-Nov-19 00:30N 29°46' W 093°21'611.6
2017-Nov-19 00:00N 29°41' W 093°20'5 9.7
2017-Nov-18 23:30N 29°36' W 093°17'  
2017-Nov-15 18:33N 27°36' W 082°44'114.2
2017-Nov-15 18:30N 27°36' W 082°43'713.2
2017-Nov-15 17:58N 27°40' W 082°36'612.9
2017-Nov-15 17:30N 27°45' W 082°32'611.7
2017-Nov-15 17:01N 27°49' W 082°27'611.8
2017-Nov-15 16:31N 27°55' W 082°26'2 3.6
2017-Nov-15 16:00N 27°56' W 082°27'0 0.9
2017-Nov-15 15:28N 27°56' W 082°27'0 0.0
2017-Nov-15 14:58N 27°56' W 082°27'0 0.0
2017-Nov-15 14:28N 27°56' W 082°27'0 0.0
2017-Nov-15 13:58N 27°56' W 082°27'0 0.0
2017-Nov-15 13:25N 27°56' W 082°27'0 0.0
2017-Nov-15 12:58N 27°56' W 082°27'0 0.0
2017-Nov-15 12:28N 27°56' W 082°27'0 0.0
2017-Nov-15 11:58N 27°56' W 082°27'0 0.0
2017-Nov-15 11:28N 27°56' W 082°27'0 0.0
2017-Nov-15 10:58N 27°56' W 082°27'0 0.0
2017-Nov-15 10:28N 27°56' W 082°27'0 0.0
2017-Nov-15 09:58N 27°56' W 082°27'0 0.0
2017-Nov-15 09:28N 27°56' W 082°27'0 0.0
2017-Nov-15 08:58N 27°56' W 082°27'0 0.0
2017-Nov-15 08:22N 27°56' W 082°27'0 0.0
2017-Nov-15 07:58N 27°56' W 082°27'0 0.0
2017-Nov-15 07:28N 27°56' W 082°27'0 0.0
2017-Nov-15 06:58N 27°56' W 082°27'0 0.0
2017-Nov-15 06:28N 27°56' W 082°27'0 0.0
2017-Nov-15 05:58N 27°56' W 082°27'0 0.0
2017-Nov-15 05:25N 27°56' W 082°27'0 0.0
2017-Nov-15 04:58N 27°56' W 082°27'0 0.0
2017-Nov-15 04:28N 27°56' W 082°27'0 0.0
2017-Nov-15 04:01N 27°56' W 082°27'0 0.0
2017-Nov-15 03:31N 27°56' W 082°27'0 0.0
2017-Nov-15 03:01N 27°56' W 082°27'0 0.0
2017-Nov-15 02:30N 27°56' W 082°27'0 0.0
2017-Nov-15 02:00N 27°56' W 082°27'0 0.0
2017-Nov-15 01:30N 27°56' W 082°27'0 0.0
2017-Nov-15 01:00N 27°56' W 082°27'0 0.0
2017-Nov-15 00:30N 27°56' W 082°27'0 0.0
2017-Nov-14 23:57N 27°56' W 082°27'0 0.0
2017-Nov-14 23:27N 27°56' W 082°27'0 0.0
2017-Nov-14 23:00N 27°56' W 082°27'0 0.0
2017-Nov-14 22:30N 27°56' W 082°27'0 0.0
2017-Nov-14 22:00N 27°56' W 082°27'0 0.0
2017-Nov-14 21:30N 27°56' W 082°27'0 0.0
2017-Nov-14 21:00N 27°56' W 082°27'0 0.0
2017-Nov-14 20:30N 27°56' W 082°27'0 0.0
2017-Nov-14 20:00N 27°56' W 082°27'0 0.0
2017-Nov-14 19:30N 27°56' W 082°27'0 0.0
2017-Nov-14 19:00N 27°56' W 082°27'0 0.0
2017-Nov-14 18:30N 27°56' W 082°27'0 0.0
2017-Nov-14 18:00N 27°56' W 082°27'0 0.0
2017-Nov-14 17:30N 27°56' W 082°27'0 0.0
2017-Nov-14 17:00N 27°56' W 082°27'0 0.0
2017-Nov-14 16:30N 27°56' W 082°27'0 0.0
2017-Nov-14 16:00N 27°56' W 082°27'0 0.0
2017-Nov-14 15:24N 27°56' W 082°27'0 0.0
2017-Nov-14 15:00N 27°56' W 082°27'0 0.0
2017-Nov-14 14:30N 27°56' W 082°27'0 0.0
2017-Nov-14 14:00N 27°56' W 082°27'0 0.0
2017-Nov-14 13:30N 27°56' W 082°27'0 0.0
2017-Nov-14 13:00N 27°56' W 082°27'0 0.0
2017-Nov-14 12:30N 27°56' W 082°27'0 0.0
2017-Nov-14 12:00N 27°56' W 082°27'0 0.0
2017-Nov-14 11:30N 27°56' W 082°27'0 0.0
2017-Nov-14 11:00N 27°56' W 082°27'0 0.0
2017-Nov-14 10:30N 27°56' W 082°27'0 0.0
2017-Nov-14 10:00N 27°56' W 082°27'0 0.0
2017-Nov-14 09:30N 27°56' W 082°27'0 0.0
2017-Nov-14 09:00N 27°56' W 082°27'0 0.0
2017-Nov-14 08:30N 27°56' W 082°27'0 0.0
2017-Nov-14 07:54N 27°56' W 082°27'0 0.0
2017-Nov-14 07:30N 27°56' W 082°27'0 0.0
2017-Nov-14 07:00N 27°56' W 082°27'0 0.0
2017-Nov-14 06:30N 27°56' W 082°27'0 0.0
2017-Nov-14 05:57N 27°56' W 082°27'0 0.0
2017-Nov-14 05:30N 27°56' W 082°27'0 0.2
2017-Nov-14 05:00N 27°56' W 082°27'2 4.2
2017-Nov-14 04:30N 27°54' W 082°26'510.7
2017-Nov-14 04:00N 27°48' W 082°27'611.2
2017-Nov-14 03:30N 27°44' W 082°32'  
2017-Nov-10 16:20N 30°11' W 093°19'0 0.0
2017-Nov-10 15:56N 30°11' W 093°19'0 0.0
2017-Nov-10 15:29N 30°11' W 093°19'0 0.0
2017-Nov-10 14:59N 30°11' W 093°19'0 0.0
2017-Nov-10 14:29N 30°11' W 093°19'0 0.0
2017-Nov-10 13:59N 30°11' W 093°19'0 0.0
2017-Nov-10 13:29N 30°11' W 093°19'0 0.0
2017-Nov-10 12:59N 30°11' W 093°19'0 0.0
2017-Nov-10 12:29N 30°11' W 093°19'0 0.0
2017-Nov-10 11:59N 30°11' W 093°19'0 0.0
2017-Nov-10 11:29N 30°11' W 093°19'0 0.0
2017-Nov-10 10:59N 30°11' W 093°19'0 0.0
2017-Nov-10 10:23N 30°11' W 093°19'0 0.0
2017-Nov-10 09:59N 30°11' W 093°19'0 0.0
2017-Nov-10 09:29N 30°11' W 093°19'0 0.0
2017-Nov-10 08:59N 30°11' W 093°19'0 0.0
2017-Nov-10 08:29N 30°11' W 093°19'0 0.0
2017-Nov-10 07:59N 30°11' W 093°19'0 0.0
2017-Nov-10 07:29N 30°11' W 093°19'0 0.0
2017-Nov-10 06:59N 30°11' W 093°19'0 0.0
2017-Nov-10 06:29N 30°11' W 093°19'0 0.0
2017-Nov-10 05:59N 30°11' W 093°19'0 0.0
2017-Nov-10 05:29N 30°11' W 093°19'0 0.0
2017-Nov-10 04:59N 30°11' W 093°19'0 0.0
2017-Nov-10 04:29N 30°11' W 093°19'0 0.0
2017-Nov-10 03:59N 30°11' W 093°19'0 0.0
2017-Nov-10 03:29N 30°11' W 093°19'0 0.0
2017-Nov-10 02:59N 30°11' W 093°19'0 0.1
2017-Nov-10 02:30N 30°11' W 093°19'1 1.1
2017-Nov-10 02:00N 30°10' W 093°19'3 6.2
2017-Nov-10 01:30N 30°07' W 093°20'4 8.1
2017-Nov-10 01:00N 30°03' W 093°20'4 8.1
2017-Nov-10 00:30N 29°59' W 093°20'  

Dump ship's entire track history